AIRPORT ID: 2CN4

DATE: 2024-04-25 ZULU TIME: 7.14 LOCAL TIME: 0.14


METAR 2CN4 250714Z AUTO 31012KT 260V360 10SM 13/05 A3008

ALTIMETER: A3008 Q1019

DENSITY ALT: 400 Ft

WIND DIRECT: 310

WIND SPEED: 12 Gust

WIND CONDITIONS:

VISIBILTY: 10SM 9999M

TEMPERATURE: 56 F 13 C

DEW POINT: 41 F 5 C

HUMID: 58%

LCL: 1,000-3,000 feet

RADIO CHECK: 0

ADVISARIES: 0

GREETINGS: 0

CONVERSATIONS: 0